Weather observations for the past three days for
Hamilton Municipal Airport
| Date | Time (cdt) | Wind (kph) | Vis. (km) | Weather | Sky Cond. | Temperature (ºC) | Relative Humidity | Wind Chill (°C) | Heat Index (°C) | Pressure | Precipitation (cm) | ||||||
|---|---|---|---|---|---|---|---|---|---|---|---|---|---|---|---|---|---|
| Air | Dwpt | 6 hour | altimeter (cm) | sea level (mb) | 1 hr | 3 hr | 6 hr | ||||||||||
| Max. | Min. | ||||||||||||||||
| 06 | 05:55 | N 19 | 16.09 | Overcast | OVC011 | 15 | 13 | 88% | 75.82 | 0.0 | |||||||
| 06 | 05:35 | N 19 | 16.09 | Overcast | OVC013 | 15 | 14 | 94% | 75.79 | 0.0 | |||||||
| 06 | 05:15 | N 20 | 16.09 | Overcast | OVC013 | 15 | 14 | 94% | 75.79 | 0.0 | |||||||
| 06 | 04:55 | N 15 | 16.09 | Overcast | OVC013 | 15 | 14 | 94% | 75.77 | 0.0 | |||||||
| 06 | 04:35 | N 19 | 16.09 | Overcast | OVC013 | 15 | 14 | 94% | 75.74 | 0.0 | |||||||
| 06 | 04:15 | N 20 | 16.09 | Overcast | OVC013 | 16 | 14 | 88% | 75.74 | 0.0 | |||||||
| 06 | 03:55 | N 20 | 16.09 | Overcast | OVC015 | 16 | 14 | 88% | 75.74 | 0.0 | |||||||
| 06 | 03:35 | N 17 | 16.09 | Overcast | OVC015 | 17 | 15 | 88% | 75.72 | 0.0 | |||||||
| 06 | 03:15 | N 22 | 16.09 | Overcast | OVC015 | 17 | 15 | 88% | 75.72 | 0.0 | |||||||
| 06 | 02:55 | N 17 | 16.09 | Overcast | OVC015 | 18 | 15 | 83% | 75.72 | 0.0 | |||||||
| 06 | 02:35 | N 13 | 16.09 | Overcast | OVC015 | 18 | 16 | 88% | 75.69 | 0.0 | |||||||
| 06 | 02:15 | N 11 | 16.09 | Overcast | OVC018 | 18 | 16 | 88% | 75.69 | 0.0 | |||||||
| 06 | 01:55 | N 11 | 16.09 | Overcast | OVC018 | 17 | 16 | 94% | 75.72 | 0.0 | |||||||
| 06 | 01:35 | N 15 | 16.09 | Mostly Cloudy | BKN016 | 18 | 16 | 88% | 75.72 | 0.0 | |||||||
| 06 | 01:15 | N 17 | 16.09 | Fair | CLR | 18 | 16 | 88% | 75.72 | 0.0 | |||||||
| 06 | 00:55 | N 11 | 16.09 | Fair | CLR | 18 | 17 | 29.2 | 17.9 | 94% | 75.69 | 0.0 | |||||
| 06 | 00:35 | N 11 | 16.09 | Fair | CLR | 18 | 16 | 88% | 75.72 | 0.0 | |||||||
| 06 | 00:15 | N 15 | 14.48 | Fair | CLR | 20 | 16 | 78% | 75.69 | 0.0 | |||||||
| 05 | 23:55 | N 13 | 14.48 | Mostly Cloudy | BKN027 BKN034 | 20 | 16 | 78% | 75.69 | 0.0 | |||||||
| 05 | 23:35 | N 20 | 14.48 | Overcast | BKN027 OVC033 | 21 | 17 | 78% | 75.69 | 0.0 | |||||||
| 05 | 23:15 | N 20 | 16.09 | Overcast | BKN029 OVC038 | 21 | 17 | 78% | 75.69 | 0.0 | |||||||
| 05 | 22:55 | N 15 | 16.09 | Overcast | SCT028 BKN038 OVC046 | 22 | 18 | 78% | 75.67 | 0.0 | |||||||
| 05 | 22:35 | N 15 | 14.48 | Mostly Cloudy | SCT026 SCT036 BKN047 | 23 | 19 | 78% | 75.64 | 0.0 | |||||||
| 05 | 22:15 | N 19 G 31 | 14.48 | Partly Cloudy | SCT026 SCT047 | 24 | 20 | 78% | 24 | 75.62 | 0.0 | ||||||
| 05 | 21:35 | S 15 | 16.09 | Fair | CLR | 24 | 22 | 89% | 24 | 75.49 | 0.0 | ||||||
| 05 | 21:15 | S 17 | 16.09 | Fair | CLR | 24 | 22 | 89% | 24 | 75.46 | 0.0 | ||||||
| 05 | 20:55 | S 17 | 16.09 | Fair | CLR | 25 | 22 | 83% | 26 | 75.44 | 0.0 | ||||||
| 05 | 20:35 | S 13 | 16.09 | Fair | CLR | 25 | 22 | 83% | 26 | 75.41 | 0.0 | ||||||
| 05 | 20:15 | S 13 | 16.09 | Fair | CLR | 26 | 22 | 79% | 28 | 75.41 | 0.0 | ||||||
| 05 | 19:55 | S 13 | 16.09 | Fair | CLR | 27 | 22 | 74% | 29 | 75.39 | 0.0 | ||||||
| 05 | 19:35 | S 15 | 16.09 | Fair | CLR | 28 | 22 | 70% | 31 | 75.39 | 0.0 | ||||||
| 05 | 19:15 | S 17 | 16.09 | Fair | CLR | 29 | 22 | 66% | 32 | 75.41 | 0.0 | ||||||
| 05 | 18:55 | S 19 | 16.09 | Fair | CLR | 29 | 22 | 32.2 | 27.9 | 66% | 32 | 75.41 | 0.0 | ||||
| 05 | 18:35 | S 17 | 16.09 | Fair | CLR | 30 | 22 | 62% | 33 | 75.39 | 0.0 | ||||||
| 05 | 18:15 | S 13 | 16.09 | Fair | CLR | 31 | 17 | 43% | 31 | 75.39 | 0.0 | ||||||
| 05 | 17:55 | SW 11 | 12.87 | Fair | CLR | 31 | 17 | 43% | 31 | 75.39 | 0.0 | ||||||
| 05 | 17:35 | SW 15 | 14.48 | Fair | CLR | 31 | 17 | 43% | 31 | 75.39 | 0.0 | ||||||
| 05 | 17:15 | SW 15 | 14.48 | Fair | CLR | 32 | 19 | 46% | 33 | 75.36 | 0.0 | ||||||
| 05 | 16:55 | Vrbl 11 | 16.09 | Fair | CLR | 32 | 17 | 41% | 32 | 75.39 | 0.0 | ||||||
| 05 | 16:35 | SW 13 | 9.66 | Fair with Haze | CLR | 32 | 18 | 43% | 33 | 75.41 | 0.0 | ||||||
| 05 | 16:15 | SW 11 | 12.87 | Fair | CLR | 32 | 18 | 43% | 33 | 75.39 | 0.0 | ||||||
| 05 | 15:55 | SW 11 G 26 | 14.48 | Fair | CLR | 31 | 18 | 46% | 32 | 75.44 | 0.0 | ||||||
| 05 | 15:35 | SW 15 | 16.09 | Fair | CLR | 32 | 20 | 49% | 34 | 75.44 | 0.0 | ||||||
| 05 | 15:15 | SW 13 | 16.09 | Fair | CLR | 31 | 19 | 49% | 32 | 75.46 | 0.0 | ||||||
| 05 | 14:35 | SW 15 | 16.09 | Fair | CLR | 31 | 21 | 55% | 34 | 75.49 | 0.0 | ||||||
| 05 | 14:15 | SW 22 G 31 | 16.09 | Fair | CLR | 31 | 21 | 55% | 34 | 75.49 | 0.0 | ||||||
| 05 | 13:55 | SW 19 | 16.09 | Fair | CLR | 30 | 22 | 62% | 33 | 75.51 | 0.0 | ||||||
| 05 | 13:35 | SW 19 G 30 | 16.09 | Fair | CLR | 29 | 22 | 66% | 32 | 75.54 | 0.0 | ||||||
| 05 | 13:15 | S 22 G 30 | 16.09 | Fair | CLR | 29 | 22 | 66% | 32 | 75.54 | 0.0 | ||||||
| 05 | 12:55 | SW 24 G 33 | 16.09 | Fair | CLR | 29 | 22 | 28.1 | 18.8 | 66% | 32 | 75.57 | 0.0 | ||||
| 05 | 12:35 | SW 26 | 16.09 | Fair | CLR | 28 | 22 | 70% | 31 | 75.57 | 0.0 | ||||||
| 05 | 12:15 | SW 28 G 39 | 16.09 | Fair | CLR | 28 | 22 | 70% | 31 | 75.57 | 0.0 | ||||||
| 05 | 11:55 | SW 30 G 37 | 16.09 | Fair | CLR | 27 | 22 | 74% | 29 | 75.57 | 0.0 | ||||||
| 05 | 11:35 | SW 24 G 39 | 16.09 | Fair | CLR | 27 | 22 | 74% | 29 | 75.57 | 0.0 | ||||||
| 05 | 11:15 | SW 24 G 33 | 16.09 | Fair | CLR | 27 | 22 | 74% | 29 | 75.57 | 0.0 | ||||||
| 05 | 10:55 | SW 28 | 16.09 | Fair | CLR | 26 | 22 | 79% | 28 | 75.57 | 0.0 | ||||||
| 05 | 10:35 | SW 26 | 16.09 | Fair | CLR | 25 | 21 | 79% | 26 | 75.57 | 0.0 | ||||||
| 05 | 10:15 | SW 30 G 43 | 16.09 | Fair | CLR | 25 | 21 | 79% | 26 | 75.57 | 0.0 | ||||||
| 05 | 09:55 | SW 30 G 43 | 16.09 | A Few Clouds | FEW015 | 24 | 21 | 83% | 24 | 75.57 | 0.0 | ||||||
| 05 | 09:35 | SW 33 G 44 | 16.09 | A Few Clouds and Breezy | FEW015 | 23 | 21 | 89% | 75.57 | 0.0 | |||||||
| 05 | 09:15 | SW 30 G 39 | 16.09 | Mostly Cloudy | BKN013 | 23 | 21 | 89% | 75.54 | 0.0 | |||||||
| 05 | 08:55 | SW 24 G 37 | 16.09 | Overcast | OVC013 | 22 | 21 | 94% | 75.57 | 0.0 | |||||||
| 05 | 08:35 | SW 24 G 31 | 16.09 | Mostly Cloudy | BKN013 | 21 | 20 | 94% | 75.54 | 0.0 | |||||||
| 05 | 08:15 | S 24 | 16.09 | A Few Clouds | FEW013 | 21 | 20 | 94% | 75.51 | 0.0 | |||||||
| 05 | 07:55 | S 24 | 16.09 | Fair | CLR | 20 | 20 | 100% | 75.49 | 0.0 | |||||||
| 05 | 07:35 | S 20 | 16.09 | Fair | CLR | 19 | 19 | 100% | 75.49 | 0.0 | |||||||
| 05 | 07:15 | S 24 | 16.09 | Fair | CLR | 19 | 19 | 100% | 75.46 | 0.0 | |||||||
| 05 | 06:55 | S 24 | 16.09 | Fair | CLR | 19 | 19 | 20.4 | 18.9 | 100% | 75.44 | 0.0 | |||||
| 05 | 06:35 | S 24 | 16.09 | Fair | CLR | 19 | 19 | 100% | 75.44 | 0.0 | |||||||
| 05 | 06:15 | SW 24 | 16.09 | Fair | CLR | 19 | 19 | 100% | 75.41 | 0.0 | |||||||
| 05 | 05:55 | S 24 | 16.09 | A Few Clouds | FEW060 | 19 | 19 | 100% | 75.41 | 0.0 | |||||||
| 05 | 05:35 | S 24 | 16.09 | A Few Clouds | FEW060 | 19 | 19 | 100% | 75.44 | 0.0 | |||||||
| 05 | 05:15 | S 24 | 16.09 | Fair | CLR | 19 | 19 | 100% | 75.44 | 0.0 | |||||||
| 05 | 04:55 | SW 22 | 16.09 | Fair | CLR | 19 | 19 | 100% | 75.44 | 0.0 | |||||||
| 05 | 04:35 | S 24 | 16.09 | Fair | CLR | 19 | 19 | 100% | 75.46 | 0.0 | |||||||
| 05 | 04:15 | SW 24 | 16.09 | Fair | CLR | 20 | 20 | 100% | 75.46 | 0.0 | |||||||
| 05 | 03:55 | S 24 G 37 | 16.09 | Fair | CLR | 20 | 20 | 100% | 75.46 | 0.0 | |||||||
| 05 | 03:35 | S 24 G 39 | 16.09 | Fair | CLR | 20 | 19 | 94% | 75.46 | 0.0 | |||||||
| 05 | 03:15 | S 28 | 16.09 | Fair | CLR | 20 | 19 | 94% | 75.49 | 0.0 | |||||||
| 05 | 02:55 | S 26 G 37 | 16.09 | Fair | CLR | 20 | 19 | 94% | 75.46 | 0.0 | |||||||
| 05 | 02:35 | S 24 | 16.09 | Fair | CLR | 20 | 19 | 94% | 75.49 | 0.0 | |||||||
| 05 | 02:15 | S 22 | 16.09 | Fair | CLR | 20 | 19 | 94% | 75.54 | 0.0 | |||||||
| 05 | 01:55 | S 22 | 16.09 | Fair | CLR | 20 | 19 | 94% | 75.54 | 0.0 | |||||||
| 05 | 01:35 | S 22 | 16.09 | Fair | CLR | 20 | 19 | 94% | 75.57 | 0.0 | |||||||
| 05 | 01:15 | S 24 | 16.09 | Fair | CLR | 20 | 19 | 94% | 75.57 | 0.0 | |||||||
| 05 | 00:55 | S 17 | 16.09 | Fair | CLR | 20 | 19 | 26.7 | 20.1 | 94% | 75.59 | 0.0 | |||||
| 05 | 00:35 | S 20 | 16.09 | Fair | CLR | 20 | 19 | 94% | 75.59 | 0.0 | |||||||
| 05 | 00:15 | S 20 | 16.09 | Fair | CLR | 21 | 19 | 88% | 75.59 | 0.0 | |||||||
| 04 | 23:55 | S 19 | 16.09 | Fair | CLR | 21 | 19 | 88% | 75.59 | 0.0 | |||||||
| 04 | 23:35 | S 17 | 16.09 | Fair | CLR | 21 | 18 | 83% | 75.62 | 0.0 | |||||||
| 04 | 23:15 | S 17 | 16.09 | Fair | CLR | 22 | 18 | 78% | 75.64 | 0.0 | |||||||
| 04 | 22:55 | S 20 | 16.09 | Fair | CLR | 22 | 18 | 78% | 75.62 | 0.0 | |||||||
| 04 | 22:35 | S 22 | 16.09 | Fair | CLR | 22 | 18 | 78% | 75.59 | 0.0 | |||||||
| 04 | 22:15 | S 20 G 31 | 16.09 | Fair | CLR | 23 | 18 | 74% | 75.59 | 0.0 | |||||||
| 04 | 21:55 | S 22 | 16.09 | Fair | CLR | 23 | 18 | 74% | 75.59 | 0.0 | |||||||
| 04 | 21:35 | S 24 G 33 | 16.09 | Fair | CLR | 23 | 18 | 74% | 75.59 | 0.0 | |||||||
| 04 | 21:15 | S 24 G 35 | 16.09 | Fair | CLR | 24 | 18 | 69% | 25 | 75.59 | 0.0 | ||||||
| 04 | 20:55 | S 22 | 16.09 | Fair | CLR | 24 | 18 | 69% | 25 | 75.54 | 0.0 | ||||||
| 04 | 20:35 | S 28 G 37 | 16.09 | Fair | CLR | 24 | 18 | 69% | 25 | 75.51 | 0.0 | ||||||
| 04 | 20:15 | S 24 | 16.09 | Fair | CLR | 25 | 18 | 65% | 26 | 75.51 | 0.0 | ||||||
| 04 | 19:55 | S 26 G 35 | 16.09 | Fair | CLR | 25 | 18 | 65% | 26 | 75.54 | 0.0 | ||||||
| 04 | 19:35 | S 26 | 16.09 | Fair | CLR | 26 | 18 | 61% | 27 | 75.54 | 0.0 | ||||||
| 04 | 19:15 | S 26 G 33 | 16.09 | Fair | CLR | 26 | 18 | 61% | 27 | 75.57 | 0.0 | ||||||
| 04 | 18:55 | S 28 G 39 | 16.09 | Fair | CLR | 26 | 18 | 28.4 | 25.1 | 61% | 27 | 75.57 | 0.0 | ||||
| 04 | 18:35 | S 30 G 43 | 16.09 | Fair | CLR | 27 | 18 | 58% | 28 | 75.57 | 0.0 | ||||||
| 04 | 18:15 | S 28 | 16.09 | Fair | CLR | 27 | 18 | 58% | 28 | 75.59 | 0.0 | ||||||
| 04 | 17:55 | S 26 G 43 | 16.09 | Fair | CLR | 28 | 18 | 55% | 29 | 75.59 | 0.0 | ||||||
| 04 | 17:35 | S 26 G 41 | 16.09 | Fair | CLR | 28 | 18 | 55% | 29 | 75.62 | 0.0 | ||||||
| 04 | 17:15 | S 30 G 41 | 16.09 | Fair | CLR | 27 | 18 | 58% | 28 | 75.59 | 0.0 | ||||||
| 04 | 16:55 | S 30 | 16.09 | Fair | CLR | 27 | 18 | 58% | 28 | 75.62 | 0.0 | ||||||
| 04 | 16:35 | S 30 G 39 | 16.09 | Fair | CLR | 27 | 18 | 58% | 28 | 75.67 | 0.0 | ||||||
| 04 | 16:15 | S 33 G 39 | 16.09 | Fair and Breezy | CLR | 27 | 18 | 58% | 28 | 75.67 | 0.0 | ||||||
| 04 | 15:55 | S 22 G 37 | 16.09 | Fair | CLR | 27 | 18 | 58% | 28 | 75.72 | 0.0 | ||||||
| 04 | 15:35 | S 26 G 41 | 16.09 | Fair | CLR | 27 | 18 | 58% | 28 | 75.74 | 0.0 | ||||||
| 04 | 15:15 | S 31 G 44 | 16.09 | Fair | CLR | 26 | 18 | 61% | 27 | 75.74 | 0.0 | ||||||
| 04 | 14:55 | S 30 G 37 | 16.09 | Fair | CLR | 26 | 18 | 61% | 27 | 75.79 | 0.0 | ||||||
| 04 | 14:35 | S 30 G 41 | 16.09 | Fair | CLR | 26 | 18 | 61% | 27 | 75.82 | 0.0 | ||||||
| 04 | 14:15 | S 28 G 35 | 16.09 | Fair | CLR | 26 | 18 | 61% | 27 | 75.84 | 0.0 | ||||||
| 04 | 13:55 | S 28 G 41 | 16.09 | Fair | CLR | 26 | 18 | 61% | 27 | 75.84 | 0.0 | ||||||
| 04 | 13:35 | S 30 G 39 | 16.09 | Fair | CLR | 26 | 18 | 61% | 27 | 75.87 | 0.0 | ||||||
| 04 | 13:15 | S 31 G 43 | 16.09 | A Few Clouds | FEW033 | 26 | 18 | 61% | 27 | 75.9 | 0.0 | ||||||
| 04 | 12:55 | S 30 G 43 | 16.09 | A Few Clouds | FEW033 | 25 | 17 | 25.4 | 12.8 | 61% | 26 | 75.9 | 0.0 | ||||
| 04 | 12:35 | S 31 G 41 | 16.09 | A Few Clouds | FEW033 | 25 | 18 | 65% | 26 | 75.92 | 0.0 | ||||||
| 04 | 12:15 | S 30 G 43 | 16.09 | A Few Clouds | FEW031 | 25 | 17 | 61% | 26 | 75.95 | 0.0 | ||||||
| 04 | 11:55 | S 31 G 41 | 16.09 | Fair | CLR | 24 | 17 | 65% | 25 | 75.95 | 0.0 | ||||||
| 04 | 11:35 | SW 33 G 43 | 16.09 | A Few Clouds and Breezy | FEW028 | 24 | 17 | 65% | 25 | 75.97 | 0.0 | ||||||
| 04 | 11:15 | S 31 G 39 | 16.09 | A Few Clouds | FEW028 | 23 | 17 | 69% | 76 | 0.0 | |||||||
| 04 | 10:55 | SW 35 G 44 | 16.09 | Fair and Breezy | CLR | 22 | 16 | 69% | 76 | 0.0 | |||||||
| 04 | 10:35 | S 31 G 44 | 16.09 | Fair | CLR | 22 | 16 | 69% | 76.02 | 0.0 | |||||||
| 04 | 10:15 | S 30 G 41 | 16.09 | Fair | CLR | 21 | 16 | 73% | 76.02 | 0.0 | |||||||
| 04 | 09:55 | S 28 G 41 | 16.09 | A Few Clouds | FEW019 | 20 | 16 | 78% | 76.02 | 0.0 | |||||||
| 04 | 09:35 | S 22 G 37 | 16.09 | Partly Cloudy | SCT019 | 19 | 16 | 83% | 76.02 | 0.0 | |||||||
| 04 | 09:15 | S 28 G 39 | 16.09 | Fair | CLR | 18 | 15 | 83% | 76.02 | 0.0 | |||||||
| 04 | 08:55 | S 33 G 41 | 16.09 | Fair and Breezy | CLR | 18 | 15 | 83% | 76.02 | 0.0 | |||||||
| 04 | 08:35 | S 28 G 37 | 16.09 | Fair | CLR | 17 | 15 | 88% | 76.02 | 0.0 | |||||||
| 04 | 08:15 | S 24 | 16.09 | Fair | CLR | 17 | 15 | 88% | 76.05 | 0.0 | |||||||
| 04 | 07:55 | S 20 | 16.09 | Fair | CLR | 15 | 15 | 100% | 76.02 | 0.0 | |||||||
| 04 | 07:35 | S 17 | 16.09 | Fair | CLR | 14 | 14 | 100% | 76.02 | 0.0 | |||||||
| 04 | 07:15 | S 17 | 16.09 | Fair | CLR | 13 | 13 | 100% | 76 | 0.0 | |||||||
| 04 | 06:55 | S 15 | 16.09 | Fair | CLR | 13 | 13 | 16 | 12.9 | 100% | 76 | 0.0 | |||||
| 04 | 06:35 | S 17 | 16.09 | Fair | CLR | 13 | 13 | 100% | 76 | 0.0 | |||||||
| 04 | 06:15 | S 17 | 16.09 | Fair | CLR | 13 | 13 | 100% | 76 | 0.0 | |||||||
| 04 | 05:55 | S 17 | 16.09 | Fair | CLR | 13 | 13 | 100% | 76 | 0.0 | |||||||
| 04 | 05:35 | S 17 | 16.09 | Fair | CLR | 13 | 12 | 94% | 76.02 | 0.0 | |||||||
| 04 | 05:15 | S 17 | 16.09 | Fair | CLR | 13 | 12 | 94% | 76.02 | 0.0 | |||||||
| 04 | 04:55 | S 17 | 16.09 | Fair | CLR | 14 | 12 | 88% | 76.05 | 0.0 | |||||||
| 04 | 04:15 | S 17 | 16.09 | Fair | CLR | 14 | 12 | 88% | 76.07 | 0.0 | |||||||
| 04 | 03:55 | S 17 | 16.09 | Fair | CLR | 14 | 12 | 88% | 76.05 | 0.0 | |||||||
| 04 | 03:35 | S 19 | 16.09 | Fair | CLR | 14 | 12 | 88% | 76.07 | 0.0 | |||||||
| 04 | 03:15 | S 17 | 16.09 | Fair | CLR | 15 | 11 | 77% | 76.07 | 0.0 | |||||||
| 04 | 02:55 | S 19 | 16.09 | Fair | CLR | 15 | 11 | 77% | 76.1 | 0.0 | |||||||
| 04 | 02:35 | S 20 | 16.09 | Fair | CLR | 15 | 10 | 72% | 76.12 | 0.0 | |||||||
| 04 | 02:15 | S 26 | 16.09 | Fair | CLR | 16 | 10 | 68% | 76.1 | 0.0 | |||||||
| 04 | 01:55 | S 28 G 35 | 16.09 | Fair | CLR | 16 | 10 | 68% | 76.12 | 0.0 | |||||||
| 04 | 01:35 | S 22 | 16.09 | Fair | CLR | 15 | 10 | 72% | 76.15 | 0.0 | |||||||
| 04 | 01:15 | S 17 | 16.09 | Fair | CLR | 14 | 10 | 77% | 76.17 | 0.0 | |||||||
| 04 | 00:55 | S 15 | 16.09 | Fair | CLR | 15 | 10 | 23.3 | 15.1 | 72% | 76.2 | 0.0 | |||||
| 04 | 00:35 | S 17 | 16.09 | Fair | CLR | 16 | 9 | 63% | 76.2 | 0.0 | |||||||
| 04 | 00:15 | S 17 | 16.09 | Fair | CLR | 16 | 9 | 63% | 76.23 | 0.0 | |||||||
| 03 | 23:55 | S 17 | 16.09 | Fair | CLR | 17 | 9 | 60% | 76.23 | 0.0 | |||||||
| 03 | 23:35 | S 19 | 16.09 | Fair | CLR | 16 | 9 | 63% | 76.23 | 0.0 | |||||||
| 03 | 23:15 | S 13 | 16.09 | Fair | CLR | 15 | 9 | 68% | 76.25 | 0.0 | |||||||
| 03 | 22:55 | S 15 | 16.09 | Fair | CLR | 16 | 9 | 63% | 76.28 | 0.0 | |||||||
| 03 | 22:35 | S 13 | 16.09 | Fair | CLR | 16 | 9 | 63% | 76.25 | 0.0 | |||||||
| 03 | 22:15 | S 17 | 16.09 | Fair | CLR | 16 | 9 | 63% | 76.25 | 0.0 | |||||||
| 03 | 21:55 | S 15 | 16.09 | Fair | CLR | 16 | 9 | 63% | 76.25 | 0.0 | |||||||
| 03 | 21:35 | S 13 | 16.09 | Fair | CLR | 17 | 9 | 60% | 76.25 | 0.0 | |||||||
| 03 | 21:15 | S 13 | 16.09 | Fair | CLR | 17 | 10 | 64% | 76.25 | 0.0 | |||||||
| 03 | 20:55 | S 11 | 16.09 | Fair | CLR | 18 | 9 | 56% | 76.25 | 0.0 | |||||||
| 03 | 20:35 | S 11 | 16.09 | Fair | CLR | 18 | 9 | 56% | 76.25 | 0.0 | |||||||
| 03 | 20:15 | S 11 | 16.09 | Fair | CLR | 19 | 9 | 52% | 76.23 | 0.0 | |||||||
| 03 | 19:55 | S 13 | 16.09 | Fair | CLR | 20 | 8 | 46% | 76.23 | 0.0 | |||||||
| 03 | 19:35 | S 15 | 16.09 | Fair | CLR | 21 | 8 | 43% | 76.23 | 0.0 | |||||||
| 03 | 19:15 | S 17 | 16.09 | Fair | CLR | 22 | 8 | 41% | 76.23 | 0.0 | |||||||
| 03 | 18:55 | S 17 | 16.09 | Fair | CLR | 23 | 7 | 26.1 | 23.2 | 36% | 76.25 | 0.0 | |||||
| 03 | 18:35 | S 17 G 26 | 16.09 | Fair | CLR | 23 | 8 | 38% | 76.25 | 0.0 | |||||||
| 03 | 18:15 | S 22 | 16.09 | Fair | CLR | 24 | 7 | 34% | 25 | 76.25 | 0.0 | ||||||
| 03 | 17:55 | S 20 | 16.09 | Fair | CLR | 23 | 7 | 36% | 76.28 | 0.0 | |||||||
| 03 | 17:35 | S 22 | 16.09 | Fair | CLR | 25 | 7 | 32% | 25 | 76.28 | 0.0 | ||||||
| 03 | 17:15 | S 20 G 33 | 16.09 | Fair | CLR | 26 | 8 | 32% | 26 | 76.3 | 0.0 | ||||||
| 03 | 16:55 | S 22 G 37 | 16.09 | Fair | CLR | 25 | 7 | 32% | 25 | 76.3 | 0.0 | ||||||
| 03 | 16:35 | S 24 G 33 | 16.09 | Fair | CLR | 26 | 6 | 28% | 26 | 76.33 | 0.0 | ||||||
| 03 | 16:15 | SW 26 G 33 | 14.48 | Fair | CLR | 26 | 7 | 30% | 26 | 76.38 | 0.0 | ||||||
| 03 | 15:55 | S 24 | 16.09 | Fair | CLR | 26 | 6 | 28% | 26 | 76.4 | 0.0 | ||||||
| 03 | 15:35 | S 19 G 33 | 16.09 | Fair | CLR | 26 | 6 | 28% | 26 | 76.43 | 0.0 | ||||||
| 03 | 15:15 | S 19 G 33 | 16.09 | Fair | CLR | 26 | 5 | 26% | 26 | 76.45 | 0.0 | ||||||
| 03 | 14:55 | S 15 G 37 | 16.09 | Fair | CLR | 25 | 4 | 26% | 25 | 76.48 | 0.0 | ||||||
| 03 | 14:35 | S 26 | 16.09 | Fair | CLR | 25 | 6 | 30% | 25 | 76.5 | 0.0 | ||||||
| 03 | 14:15 | S 19 G 30 | 16.09 | Fair | CLR | 25 | 6 | 30% | 25 | 76.5 | 0.0 | ||||||
| 03 | 13:35 | SW 19 G 28 | 16.09 | Fair | CLR | 25 | 8 | 34% | 26 | 76.56 | 0.0 | ||||||
| 03 | 13:15 | S 17 G 30 | 16.09 | Fair | CLR | 25 | 7 | 32% | 25 | 76.58 | 0.0 | ||||||
| 03 | 12:55 | S 17 G 35 | 16.09 | Fair | CLR | 25 | 6 | 24.7 | 9.4 | 30% | 25 | 76.63 | 0.0 | ||||
| 03 | 12:35 | SW 19 | 16.09 | Fair | CLR | 24 | 7 | 34% | 25 | 76.63 | 0.0 | ||||||
| 03 | 12:15 | W 17 G 28 | 16.09 | Fair | CLR | 24 | 8 | 36% | 25 | 76.66 | 0.0 | ||||||
| 03 | 11:55 | SW 19 G 30 | 16.09 | Fair | CLR | 24 | 8 | 36% | 25 | 76.68 | 0.0 | ||||||
| 03 | 11:35 | SW 20 | 14.48 | Fair | CLR | 23 | 8 | 38% | 76.71 | 0.0 | |||||||
| 03 | 11:15 | W 22 | 2.41 | Light Rain Haze | CLR | 23 | 9 | 41% | 76.71 | 0.0 | |||||||
| 03 | 10:55 | SW 24 G 33 | 12.87 | Fair | CLR | 22 | 9 | 44% | 76.73 | 0.0 | |||||||
| 03 | 10:35 | SW 24 G 31 | 4.83 | Light Rain Haze | CLR | 22 | 9 | 44% | 76.73 | 0.0 | |||||||
| 03 | 10:15 | SW 20 | 2.82 | Light Rain Haze | CLR | 21 | 10 | 50% | 76.73 | 0.0 | |||||||
| 03 | 09:55 | SW 26 | 11.27 | Fair with Haze | CLR | 20 | 10 | 53% | 76.73 | 0.0 | |||||||
| 03 | 09:35 | SW 24 | 12.87 | Fair | CLR | 19 | 10 | 56% | 76.71 | 0.0 | |||||||
| 03 | 09:15 | SW 26 | 12.87 | Fair | CLR | 18 | 11 | 64% | 76.71 | 0.0 | |||||||
| 03 | 08:55 | SW 19 | 11.27 | Light Rain Haze | CLR | 17 | 11 | 68% | 76.68 | 0.0 | |||||||
| 03 | 08:35 | SW 17 | 6.44 | Light Drizzle Haze | CLR | 16 | 11 | 72% | 76.68 | 0.0 | |||||||
| 03 | 08:15 | SW 15 | 12.87 | Fair | CLR | 15 | 11 | 77% | 76.68 | 0.0 | |||||||
| 03 | 07:35 | SW 11 | 12.87 | Fair | CLR | 11 | 10 | 94% | 76.66 | 0.0 | |||||||
| 03 | 07:15 | SW 15 | 12.87 | Fair | CLR | 10 | 9 | 94% | 8 | 76.66 | 0.0 | ||||||
| 03 | 06:55 | SW 17 | 16.09 | Fair | CLR | 10 | 9 | 12.2 | 8.9 | 94% | 8 | 76.63 | 0.0 | ||||
| 03 | 06:35 | S 11 | 14.48 | Fair | CLR | 9 | 8 | 94% | 8 | 76.61 | 0.0 | ||||||
| Date | Time (cdt) | Wind (kph) | Vis. (km) | Weather | Sky Cond. | Air | Dwpt | Max. | Min. | Relative Humidity | Wind Chill (°C) | Heat Index (°C) | altimeter (cm) | sea level (mb) | 1 hr | 3 hr | 6 hr |
| 6 hour | |||||||||||||||||
| Temperature (ºC) | Pressure | Precipitation (cm) | |||||||||||||||